createdAt,value
2023-01-11T00:02:05.754Z,61.90
2023-01-11T00:04:34.795Z,64.97
2023-01-11T00:07:03.869Z,64.27
2023-01-11T00:09:34.996Z,52.07
2023-01-11T00:12:04.514Z,48.27
2023-01-11T00:14:33.509Z,40.77
2023-01-11T00:17:02.530Z,38.33
2023-01-11T00:19:31.545Z,37.13
2023-01-11T00:22:00.569Z,51.00
2023-01-11T00:24:29.677Z,45.63
2023-01-11T00:27:00.231Z,41.27
2023-01-11T00:29:29.355Z,33.40
2023-01-11T00:31:58.510Z,30.73
2023-01-11T00:34:27.871Z,30.13
2023-01-11T00:36:56.863Z,27.67
2023-01-11T00:39:25.795Z,29.73
2023-01-11T00:42:12.214Z,35.73
2023-01-11T00:45:00.143Z,35.53
2023-01-11T00:47:46.447Z,34.13
2023-01-11T00:50:37.961Z,33.97
2023-01-11T00:53:07.998Z,32.20
2023-01-11T00:55:37.353Z,39.37
2023-01-11T00:58:06.741Z,57.00
2023-01-11T01:00:37.490Z,59.17
2023-01-11T01:03:06.486Z,56.40
2023-01-11T01:05:35.485Z,42.03
2023-01-11T01:08:04.424Z,64.00
2023-01-11T01:10:33.334Z,77.97
2023-01-11T01:13:19.625Z,72.43
2023-01-11T01:15:50.206Z,69.13
2023-01-11T01:18:20.730Z,65.87
2023-01-11T01:20:52.350Z,62.80
2023-01-11T01:23:21.532Z,62.67
2023-01-11T01:25:50.589Z,55.50
2023-01-11T01:28:22.403Z,59.77
2023-01-11T01:30:55.910Z,53.17
2023-01-11T01:33:25.472Z,54.60
2023-01-11T01:35:54.405Z,65.40
2023-01-11T01:38:23.681Z,87.87
2023-01-11T01:40:52.734Z,61.47
2023-01-11T01:43:21.728Z,66.00
2023-01-11T01:45:53.176Z,68.63
2023-01-11T01:48:26.873Z,66.43
2023-01-11T01:51:00.002Z,68.37
2023-01-11T01:53:35.917Z,64.40
2023-01-11T01:56:09.162Z,70.77
2023-01-11T01:58:43.340Z,80.73
2023-01-11T02:01:31.411Z,90.13
2023-01-11T02:04:03.331Z,85.87
2023-01-11T02:06:52.299Z,87.30
2023-01-11T02:09:28.008Z,83.87
2023-01-11T02:11:59.002Z,74.27
2023-01-11T02:14:29.633Z,76.67
2023-01-11T02:16:58.846Z,71.57
2023-01-11T02:19:45.210Z,75.20
2023-01-11T02:22:45.526Z,72.87
2023-01-11T02:25:47.060Z,70.93
2023-01-11T02:28:22.603Z,68.33
2023-01-11T02:31:00.784Z,67.57
2023-01-11T02:33:39.275Z,71.67
2023-01-11T02:36:16.593Z,250.53
2023-01-11T02:38:52.570Z,294.43
2023-01-11T02:41:29.019Z,121.43
2023-01-11T02:44:20.882Z,92.57
2023-01-11T02:46:54.322Z,104.57
2023-01-11T02:49:33.338Z,93.77
2023-01-11T02:52:09.551Z,91.97
2023-01-11T02:54:39.521Z,96.83
2023-01-11T02:57:10.151Z,89.03
2023-01-11T02:59:42.341Z,77.60
2023-01-11T03:02:14.385Z,78.70
2023-01-11T03:04:43.554Z,69.60
2023-01-11T03:07:36.795Z,70.70
2023-01-11T03:10:18.746Z,74.40
2023-01-11T03:12:57.911Z,76.60
2023-01-11T03:16:00.545Z,67.87
2023-01-11T03:18:41.662Z,56.03
2023-01-11T03:21:26.146Z,47.50
2023-01-11T03:24:05.871Z,45.00
2023-01-11T03:26:42.856Z,40.57
2023-01-11T03:29:19.507Z,38.87
2023-01-11T03:31:54.665Z,37.53
2023-01-11T03:34:32.986Z,43.00
2023-01-11T03:37:07.575Z,45.17
2023-01-11T03:39:42.114Z,139.67
2023-01-11T03:42:31.150Z,112.13
2023-01-11T03:45:04.222Z,120.33
2023-01-11T03:47:36.505Z,48.80
2023-01-11T03:50:08.219Z,32.03
2023-01-11T03:52:41.836Z,30.27
2023-01-11T03:55:13.797Z,31.37
2023-01-11T03:57:51.567Z,36.33
2023-01-11T04:00:22.017Z,31.17
2023-01-11T04:02:54.135Z,28.47
2023-01-11T04:05:23.642Z,28.10
2023-01-11T04:07:52.796Z,66.27
2023-01-11T04:10:21.939Z,113.57
2023-01-11T04:12:51.173Z,112.50
2023-01-11T04:15:20.229Z,37.73
2023-01-11T04:17:49.340Z,29.43
2023-01-11T04:20:19.994Z,27.00
2023-01-11T04:22:49.173Z,124.60
2023-01-11T04:25:18.257Z,44.50
2023-01-11T04:27:47.202Z,40.87
2023-01-11T04:30:16.627Z,53.47
2023-01-11T04:32:45.773Z,39.07
2023-01-11T04:35:14.941Z,74.23
2023-01-11T04:37:45.401Z,115.27
2023-01-11T04:40:14.797Z,41.43
2023-01-11T04:42:42.768Z,34.03
2023-01-11T04:45:12.243Z,32.07
2023-01-11T04:47:41.253Z,39.13
2023-01-11T04:50:11.983Z,57.87
2023-01-11T04:52:42.008Z,64.73
2023-01-11T04:55:12.649Z,70.83
2023-01-11T04:57:41.832Z,127.73
2023-01-11T05:00:12.694Z,77.07
2023-01-11T05:02:42.090Z,61.97
2023-01-11T05:05:12.990Z,33.27
2023-01-11T05:07:42.167Z,35.87
2023-01-11T05:10:13.437Z,31.63
2023-01-11T05:12:42.565Z,33.20
2023-01-11T05:15:12.073Z,32.60
2023-01-11T05:17:41.054Z,28.00
2023-01-11T05:20:12.092Z,32.63
2023-01-11T05:22:41.178Z,32.63
2023-01-11T05:25:12.369Z,35.90
2023-01-11T05:27:41.427Z,28.83
2023-01-11T05:30:12.148Z,35.80
2023-01-11T05:32:41.177Z,37.57
2023-01-11T05:35:11.463Z,46.03
2023-01-11T05:37:40.457Z,36.50
2023-01-11T05:40:12.868Z,39.47
2023-01-11T05:42:42.060Z,40.27
2023-01-11T05:45:28.925Z,42.10
2023-01-11T05:47:58.014Z,42.03
2023-01-11T05:50:27.280Z,35.47
2023-01-11T05:52:56.191Z,34.90
2023-01-11T05:55:26.704Z,37.90
2023-01-11T05:57:56.221Z,39.57
2023-01-11T06:00:43.823Z,40.20
2023-01-11T06:03:16.218Z,43.53
2023-01-11T06:05:46.166Z,58.27
2023-01-11T06:08:16.104Z,57.27
2023-01-11T06:10:53.022Z,64.17
2023-01-11T06:13:28.860Z,59.47
2023-01-11T06:16:04.053Z,64.67
2023-01-11T06:18:53.558Z,52.07
2023-01-11T06:21:24.251Z,44.17
2023-01-11T06:23:53.417Z,47.20
2023-01-11T06:26:24.526Z,48.50
2023-01-11T06:28:53.914Z,39.40
2023-01-11T06:31:23.236Z,40.30
2023-01-11T06:33:52.427Z,60.47
2023-01-11T06:36:21.411Z,69.97
2023-01-11T06:38:50.724Z,84.20
2023-01-11T06:41:20.010Z,112.30
2023-01-11T06:43:52.234Z,103.73
2023-01-11T06:46:21.969Z,111.87
2023-01-11T06:48:51.612Z,107.00
2023-01-11T06:51:20.892Z,101.00
2023-01-11T06:53:50.089Z,81.93
2023-01-11T06:56:20.707Z,71.20
2023-01-11T06:58:52.414Z,74.70
2023-01-11T07:01:22.168Z,70.50
2023-01-11T07:03:51.623Z,89.70
2023-01-11T07:06:20.574Z,111.70
2023-01-11T07:08:49.648Z,87.23
2023-01-11T07:11:18.787Z,70.87
2023-01-11T07:13:47.790Z,67.47
2023-01-11T07:16:19.202Z,62.07
2023-01-11T07:18:48.217Z,56.30
2023-01-11T07:21:17.332Z,103.80
2023-01-11T07:23:46.123Z,67.67
2023-01-11T07:26:17.446Z,67.13
2023-01-11T07:28:46.569Z,83.50
2023-01-11T07:31:15.657Z,150.50
2023-01-11T07:33:46.251Z,132.40
2023-01-11T07:36:15.276Z,109.10
2023-01-11T07:38:44.378Z,88.53
2023-01-11T07:41:27.234Z,98.40
2023-01-11T07:43:56.298Z,79.20
2023-01-11T07:46:25.274Z,82.00
2023-01-11T07:48:56.081Z,121.83
2023-01-11T07:51:29.823Z,117.93
2023-01-11T07:54:02.672Z,121.87
2023-01-11T07:56:32.636Z,124.47
2023-01-11T07:59:01.683Z,151.30
2023-01-11T08:01:30.941Z,150.97
2023-01-11T08:04:01.453Z,170.37
2023-01-11T08:06:30.501Z,183.83
2023-01-11T08:08:59.522Z,175.07
2023-01-11T08:11:45.953Z,182.03
2023-01-11T08:14:32.403Z,211.77
2023-01-11T08:17:01.558Z,223.00
2023-01-11T08:19:32.229Z,243.40
2023-01-11T08:22:01.533Z,222.27
2023-01-11T08:24:30.486Z,199.10
2023-01-11T08:26:59.413Z,215.00
2023-01-11T08:29:29.021Z,239.87
2023-01-11T08:31:59.414Z,273.80
2023-01-11T08:34:29.431Z,266.80
2023-01-11T08:37:02.248Z,339.53
2023-01-11T08:39:31.663Z,355.10
2023-01-11T08:42:01.009Z,380.63
2023-01-11T08:44:34.100Z,380.50
2023-01-11T08:47:03.786Z,386.90
2023-01-11T08:49:32.847Z,159.27
2023-01-11T08:52:03.221Z,134.97
2023-01-11T08:54:51.016Z,132.20
2023-01-11T08:57:19.987Z,112.87
2023-01-11T08:59:49.079Z,112.53
2023-01-11T09:02:18.080Z,108.27
2023-01-11T09:04:46.990Z,106.67
2023-01-11T09:07:17.615Z,111.33
2023-01-11T09:09:46.686Z,123.43
2023-01-11T09:12:15.781Z,120.03
2023-01-11T09:14:44.875Z,103.80
2023-01-11T09:17:13.878Z,104.10
2023-01-11T09:19:42.755Z,115.90
2023-01-11T09:22:11.899Z,102.43
2023-01-11T09:24:42.585Z,113.57
2023-01-11T09:27:12.192Z,111.43
2023-01-11T09:29:59.525Z,110.63
2023-01-11T09:32:28.552Z,89.53
2023-01-11T09:34:59.947Z,94.23
2023-01-11T09:37:29.069Z,120.47
2023-01-11T09:39:59.912Z,149.37
2023-01-11T09:42:35.758Z,153.40
2023-01-11T09:45:14.762Z,176.97
2023-01-11T09:47:49.746Z,118.63
2023-01-11T09:50:23.654Z,114.03
2023-01-11T09:52:55.357Z,107.80
2023-01-11T09:55:34.048Z,94.47
2023-01-11T09:58:18.687Z,122.80
2023-01-11T10:00:55.706Z,80.10
2023-01-11T10:03:58.561Z,81.33
2023-01-11T10:06:33.598Z,77.53
2023-01-11T10:18:26.726Z,70.70
2023-01-11T10:18:46.110Z,79.67
2023-01-11T10:21:19.875Z,128.67
2023-01-11T10:23:53.998Z,74.10
2023-01-11T10:26:29.435Z,90.23
2023-01-11T10:29:22.227Z,125.33
2023-01-11T10:32:13.747Z,133.70
2023-01-11T10:35:14.574Z,122.53
2023-01-11T10:38:02.582Z,128.57
2023-01-11T10:40:59.113Z,134.13
2023-01-11T10:43:29.990Z,514.50
2023-01-11T10:46:04.234Z,221.73
2023-01-11T10:48:37.415Z,129.60
2023-01-11T10:51:14.551Z,134.03
2023-01-11T10:54:00.157Z,121.97
2023-01-11T10:56:42.740Z,97.27
2023-01-11T10:59:51.028Z,75.47
2023-01-11T11:02:39.507Z,72.40
2023-01-11T11:05:20.834Z,96.07
2023-01-11T11:07:56.295Z,90.73
2023-01-11T11:10:31.521Z,77.20
2023-01-11T11:13:10.496Z,59.00
2023-01-11T11:16:05.244Z,51.20
2023-01-11T11:18:36.604Z,50.83
2023-01-11T11:21:08.554Z,53.13
2023-01-11T11:23:38.588Z,53.37
2023-01-11T11:26:09.175Z,53.83
2023-01-11T11:28:38.393Z,52.93
2023-01-11T11:31:13.803Z,58.73
2023-01-11T11:33:48.392Z,71.47
2023-01-11T11:36:44.025Z,80.33
2023-01-11T11:39:20.993Z,63.00
2023-01-11T11:41:52.073Z,54.53
2023-01-11T11:44:24.631Z,53.77
2023-01-11T11:47:01.875Z,47.20
2023-01-11T11:49:33.437Z,41.10
2023-01-11T11:52:06.365Z,37.23
2023-01-11T11:54:39.244Z,35.90
2023-01-11T11:57:25.142Z,39.30
2023-01-11T12:00:05.192Z,41.27
2023-01-11T12:02:35.999Z,39.03
2023-01-11T12:05:11.273Z,39.83
2023-01-11T12:07:54.838Z,41.20
2023-01-11T12:10:26.416Z,41.43
2023-01-11T12:12:58.131Z,44.33
2023-01-11T12:15:29.128Z,43.67
2023-01-11T12:18:15.550Z,43.23
2023-01-11T12:20:47.483Z,57.33
2023-01-11T12:23:35.077Z,60.50
2023-01-11T12:26:22.749Z,74.67
2023-01-11T12:29:41.765Z,91.67
2023-01-11T12:32:27.445Z,103.53
2023-01-11T12:35:32.064Z,111.13
2023-01-11T12:38:33.204Z,145.37
2023-01-11T12:41:19.308Z,158.20
2023-01-11T12:44:01.199Z,147.60
2023-01-11T12:46:44.711Z,163.27
2023-01-11T12:49:24.525Z,154.27
2023-01-11T12:52:12.745Z,152.97
2023-01-11T12:55:02.030Z,134.33
2023-01-11T12:57:37.189Z,118.83
2023-01-11T13:00:33.134Z,119.57
2023-01-11T13:03:26.831Z,115.83
2023-01-11T13:06:03.484Z,112.00
2023-01-11T13:08:46.492Z,111.43
2023-01-11T13:11:36.740Z,112.53
2023-01-11T13:14:23.444Z,125.00
2023-01-11T13:17:02.062Z,127.67
2023-01-11T13:19:58.293Z,132.20
2023-01-11T13:22:32.740Z,112.60
2023-01-11T13:25:04.426Z,157.47
2023-01-11T13:27:56.141Z,142.30
2023-01-11T13:30:25.919Z,123.67
2023-01-11T13:32:58.216Z,136.07
2023-01-11T13:35:38.184Z,159.17
2023-01-11T13:38:16.971Z,141.83
2023-01-11T13:40:50.041Z,142.87
2023-01-11T13:43:27.940Z,153.47
2023-01-11T13:46:03.893Z,136.27
2023-01-11T13:48:39.220Z,135.30
2023-01-11T13:51:21.104Z,123.00
2023-01-11T13:54:15.608Z,123.53
2023-01-11T13:56:49.814Z,113.47
2023-01-11T13:59:28.115Z,109.93
2023-01-11T14:02:23.612Z,115.00
2023-01-11T14:05:00.191Z,114.73
2023-01-11T14:07:41.682Z,128.23
2023-01-11T14:10:31.725Z,116.53
2023-01-11T14:13:47.300Z,106.13
2023-01-11T14:16:25.818Z,99.43
2023-01-11T14:19:02.695Z,110.20
2023-01-11T14:21:39.380Z,111.43
2023-01-11T14:24:12.111Z,118.30
2023-01-11T14:27:07.345Z,107.13
2023-01-11T14:29:59.414Z,120.93
2023-01-11T14:32:51.285Z,110.87
2023-01-11T14:35:40.032Z,116.33
2023-01-11T14:38:44.206Z,101.10
2023-01-11T14:41:50.133Z,86.43
2023-01-11T14:44:47.173Z,86.07
2023-01-11T14:47:36.937Z,87.07
2023-01-11T14:50:28.519Z,75.10
2023-01-11T14:53:02.883Z,81.30
2023-01-11T14:55:36.066Z,82.97
2023-01-11T14:58:28.155Z,82.13
2023-01-11T15:01:11.972Z,88.53
2023-01-11T15:03:56.329Z,89.30
2023-01-11T15:06:25.997Z,83.60
2023-01-11T15:08:56.929Z,80.33
2023-01-11T15:11:38.940Z,97.70
2023-01-11T15:14:32.917Z,99.07
2023-01-11T15:17:21.306Z,102.97
2023-01-11T15:19:53.688Z,102.23
2023-01-11T15:22:27.455Z,103.00
2023-01-11T15:24:59.926Z,108.43
2023-01-11T15:27:33.994Z,116.07
2023-01-11T15:30:03.506Z,110.27
2023-01-11T15:32:34.513Z,107.80
2023-01-11T15:35:34.929Z,120.60
2023-01-11T15:38:15.037Z,119.93
2023-01-11T15:40:46.951Z,124.50
2023-01-11T15:43:49.329Z,116.73
2023-01-11T15:46:56.690Z,117.37
2023-01-11T15:50:14.600Z,121.07
2023-01-11T15:53:17.142Z,120.73
2023-01-11T15:56:18.485Z,148.77
2023-01-11T15:59:21.479Z,197.60
2023-01-11T16:02:22.661Z,157.43
2023-01-11T16:04:55.278Z,121.70
2023-01-11T16:07:32.527Z,120.97
2023-01-11T16:10:28.225Z,98.77
2023-01-11T16:13:15.790Z,89.93
2023-01-11T16:16:00.218Z,87.63
2023-01-11T16:18:35.331Z,82.70
2023-01-11T16:21:07.874Z,75.73
2023-01-11T16:23:37.458Z,82.53
2023-01-11T16:26:08.377Z,79.33
2023-01-11T16:28:41.625Z,102.20
2023-01-11T16:31:10.925Z,109.37
2023-01-11T16:33:40.266Z,129.80
2023-01-11T16:36:13.556Z,146.83
2023-01-11T16:38:56.896Z,152.30
2023-01-11T16:41:30.681Z,176.27
2023-01-11T16:44:04.287Z,161.20
2023-01-11T16:47:08.935Z,182.13
2023-01-11T16:49:38.606Z,144.03
2023-01-11T16:52:35.023Z,150.80
2023-01-11T16:55:13.967Z,133.43
2023-01-11T16:57:49.391Z,132.33
2023-01-11T17:00:29.130Z,177.77
2023-01-11T17:03:20.842Z,230.90
2023-01-11T17:06:19.658Z,220.80
2023-01-11T17:08:52.618Z,218.47
2023-01-11T17:11:34.471Z,219.23
2023-01-11T17:14:46.912Z,258.33
2023-01-11T17:17:16.481Z,250.23
2023-01-11T17:19:47.763Z,269.70
2023-01-11T17:22:21.999Z,295.17
2023-01-11T17:24:55.706Z,275.57
2023-01-11T17:27:29.586Z,276.20
2023-01-11T17:30:01.079Z,277.07
2023-01-11T17:32:37.256Z,286.17
2023-01-11T17:35:09.003Z,283.30
2023-01-11T17:37:38.227Z,312.37
2023-01-11T17:40:14.938Z,296.10
2023-01-11T17:43:02.044Z,294.40
2023-01-11T17:45:32.936Z,282.17
2023-01-11T17:48:13.383Z,271.20
2023-01-11T17:50:48.942Z,272.10
2023-01-11T17:53:22.563Z,260.13
2023-01-11T17:55:54.101Z,250.17
2023-01-11T17:58:27.663Z,228.20
2023-01-11T18:01:20.316Z,221.67
2023-01-11T18:03:51.259Z,216.23
2023-01-11T18:06:26.044Z,207.00
2023-01-11T18:08:57.314Z,199.97
2023-01-11T18:11:29.279Z,190.27
2023-01-11T18:14:01.386Z,172.20
2023-01-11T18:16:32.462Z,176.87
2023-01-11T18:19:01.855Z,159.60
2023-01-11T18:21:41.440Z,160.53
2023-01-11T18:24:43.508Z,141.13
2023-01-11T18:27:31.111Z,139.13
2023-01-11T18:30:03.052Z,142.13
2023-01-11T18:32:52.325Z,124.30
2023-01-11T18:35:21.338Z,120.27
2023-01-11T18:37:50.695Z,125.27
2023-01-11T18:40:21.829Z,117.40
2023-01-11T18:42:53.733Z,117.07
2023-01-11T18:45:25.430Z,121.23
2023-01-11T18:47:56.133Z,182.90
2023-01-11T18:50:25.987Z,183.20
2023-01-11T18:52:55.245Z,205.50
2023-01-11T18:55:24.276Z,193.67
2023-01-11T18:57:53.406Z,190.20
2023-01-11T19:00:22.761Z,185.23
2023-01-11T19:05:27.924Z,152.13
2023-01-11T19:07:57.272Z,140.40
2023-01-11T19:10:27.017Z,171.07
2023-01-11T19:12:57.796Z,197.60
2023-01-11T19:15:27.038Z,244.17
2023-01-11T19:17:57.304Z,286.37
2023-01-11T19:20:28.927Z,288.80
2023-01-11T19:22:58.357Z,348.07
2023-01-11T19:25:27.911Z,356.57
2023-01-11T19:27:57.449Z,351.37
2023-01-11T19:30:27.104Z,338.07
2023-01-11T19:32:56.486Z,342.27
2023-01-11T19:35:27.187Z,307.87
2023-01-11T19:37:57.070Z,283.17
2023-01-11T19:40:26.782Z,288.40
2023-01-11T19:42:55.833Z,254.90
2023-01-11T19:45:25.387Z,193.33
2023-01-11T19:47:55.109Z,114.93
2023-01-11T19:50:24.496Z,128.67
2023-01-11T19:52:55.462Z,112.90
2023-01-11T19:55:24.967Z,117.20
2023-01-11T19:57:54.272Z,89.97
2023-01-11T20:00:23.388Z,81.80
2023-01-11T20:02:52.509Z,82.37
2023-01-11T20:05:21.744Z,93.60
2023-01-11T20:07:51.005Z,91.67
2023-01-11T20:10:21.714Z,83.87
2023-01-11T20:12:50.721Z,88.87
2023-01-11T20:15:19.955Z,95.10
2023-01-11T20:17:49.001Z,99.97
2023-01-11T20:20:18.405Z,102.80
2023-01-11T20:22:47.538Z,114.67
2023-01-11T20:25:17.911Z,146.77
2023-01-11T20:27:48.532Z,198.60
2023-01-11T20:30:18.116Z,205.23
2023-01-11T20:32:47.313Z,210.93
2023-01-11T20:35:16.277Z,187.90
2023-01-11T20:37:45.178Z,193.30
2023-01-11T20:40:32.805Z,186.97
2023-01-11T20:43:03.373Z,195.67
2023-01-11T20:45:32.542Z,387.00
2023-01-11T20:48:01.811Z,322.00
2023-01-11T20:50:30.798Z,385.63
2023-01-11T20:53:00.610Z,448.53
2023-01-11T20:55:30.099Z,358.00
2023-01-11T20:57:59.480Z,181.93
2023-01-11T21:00:30.030Z,150.83
2023-01-11T21:02:59.162Z,121.93
2023-01-11T21:05:28.189Z,116.70
2023-01-11T21:07:57.155Z,113.60
2023-01-11T21:10:26.382Z,110.60
2023-01-11T21:12:56.770Z,105.30
2023-01-11T21:15:26.256Z,183.63
2023-01-11T21:17:56.930Z,168.37
2023-01-11T21:20:26.008Z,195.70
2023-01-11T21:22:55.060Z,235.97
2023-01-11T21:25:24.174Z,178.97
2023-01-11T21:27:53.204Z,181.73
2023-01-11T21:30:23.527Z,173.10
2023-01-11T21:32:52.857Z,167.40
2023-01-11T21:35:23.266Z,157.97
2023-01-11T21:37:52.454Z,149.17
2023-01-11T21:40:21.605Z,138.67
2023-01-11T21:42:50.604Z,117.07
2023-01-11T21:45:19.754Z,129.53
2023-01-11T21:47:48.697Z,127.33
2023-01-11T21:50:18.191Z,141.00
2023-01-11T21:52:48.777Z,140.40
2023-01-11T21:55:18.036Z,137.73
2023-01-11T21:57:47.061Z,126.97
2023-01-11T22:00:17.726Z,119.53
2023-01-11T22:02:46.859Z,122.47
2023-01-11T22:05:16.840Z,107.57
2023-01-11T22:07:47.781Z,117.00
2023-01-11T22:10:18.347Z,123.83
2023-01-11T22:12:47.787Z,127.60
2023-01-11T22:15:17.074Z,134.07
2023-01-11T22:17:46.513Z,135.37
2023-01-11T22:20:17.743Z,158.77
2023-01-11T22:22:48.183Z,160.33
2023-01-11T22:25:17.520Z,181.90
2023-01-11T22:27:46.368Z,144.30
2023-01-11T22:30:15.929Z,125.37
2023-01-11T22:32:44.964Z,120.33
2023-01-11T22:35:14.028Z,92.47
2023-01-11T22:37:43.312Z,81.20
2023-01-11T22:40:15.783Z,73.73
2023-01-11T22:42:45.232Z,78.50
2023-01-11T22:45:14.469Z,86.20
2023-01-11T22:47:43.536Z,85.83
2023-01-11T22:50:13.059Z,112.90
2023-01-11T22:52:42.310Z,114.97
2023-01-11T22:55:13.286Z,106.23
2023-01-11T22:57:42.477Z,131.83
2023-01-11T23:00:13.831Z,115.47
2023-01-11T23:02:43.020Z,114.50
2023-01-11T23:05:12.329Z,113.03
2023-01-11T23:07:41.527Z,125.23
2023-01-11T23:10:13.960Z,112.87
2023-01-11T23:13:00.131Z,116.57
2023-01-11T23:15:29.282Z,138.20
2023-01-11T23:17:58.490Z,149.57
2023-01-11T23:20:27.651Z,174.27
2023-01-11T23:22:56.821Z,190.00
2023-01-11T23:25:27.792Z,188.73
2023-01-11T23:27:57.776Z,186.30
2023-01-11T23:30:27.129Z,174.00
2023-01-11T23:32:56.359Z,174.97
2023-01-11T23:35:25.543Z,197.63
2023-01-11T23:37:56.380Z,195.10
2023-01-11T23:40:26.911Z,204.37
2023-01-11T23:42:55.191Z,225.73
2023-01-11T23:45:24.394Z,199.77
2023-01-11T23:47:52.405Z,181.70
2023-01-11T23:50:21.654Z,178.00
2023-01-11T23:52:50.793Z,186.90
2023-01-11T23:55:19.891Z,169.33
2023-01-11T23:58:09.458Z,147.00
